sensor_id;sensor_type;location;lat;lon;timestamp;temperature;humidity
12849;DHT22;6493;50.928;7.172;2024-03-23T00:57:54;7.10;55.80
12849;DHT22;6493;50.928;7.172;2024-03-23T01:02:57;7.10;55.90
12849;DHT22;6493;50.928;7.172;2024-03-23T01:07:59;7.00;55.80
12849;DHT22;6493;50.928;7.172;2024-03-23T01:13:05;7.00;55.80
12849;DHT22;6493;50.928;7.172;2024-03-23T01:18:07;7.00;56.00
12849;DHT22;6493;50.928;7.172;2024-03-23T01:23:10;6.90;55.80
12849;DHT22;6493;50.928;7.172;2024-03-23T01:28:15;6.90;56.00
12849;DHT22;6493;50.928;7.172;2024-03-23T01:33:18;6.90;56.00
12849;DHT22;6493;50.928;7.172;2024-03-23T01:38:20;6.90;56.10
12849;DHT22;6493;50.928;7.172;2024-03-23T01:43:24;6.80;56.10
12849;DHT22;6493;50.928;7.172;2024-03-23T01:48:28;6.80;56.10
12849;DHT22;6493;50.928;7.172;2024-03-23T01:53:30;6.80;56.10
12849;DHT22;6493;50.928;7.172;2024-03-23T01:58:35;6.80;56.10
12849;DHT22;6493;50.928;7.172;2024-03-23T02:03:37;6.70;56.00
12849;DHT22;6493;50.928;7.172;2024-03-23T02:08:41;6.60;56.00
12849;DHT22;6493;50.928;7.172;2024-03-23T02:13:45;6.60;56.00
12849;DHT22;6493;50.928;7.172;2024-03-23T02:18:48;6.50;55.80
12849;DHT22;6493;50.928;7.172;2024-03-23T02:23:52;6.40;55.80
12849;DHT22;6493;50.928;7.172;2024-03-23T02:28:55;6.30;55.80
12849;DHT22;6493;50.928;7.172;2024-03-23T02:33:58;6.20;56.30
12849;DHT22;6493;50.928;7.172;2024-03-23T02:39:02;6.10;55.90
12849;DHT22;6493;50.928;7.172;2024-03-23T02:44:05;6.10;55.80
12849;DHT22;6493;50.928;7.172;2024-03-23T02:49:08;5.90;55.70
12849;DHT22;6493;50.928;7.172;2024-03-23T02:54:12;5.90;55.70
12849;DHT22;6493;50.928;7.172;2024-03-23T02:59:15;5.80;55.70
12849;DHT22;6493;50.928;7.172;2024-03-23T03:04:17;5.60;55.70
12849;DHT22;6493;50.928;7.172;2024-03-23T03:09:21;5.60;56.10
12849;DHT22;6493;50.928;7.172;2024-03-23T03:14:24;5.40;55.60
12849;DHT22;6493;50.928;7.172;2024-03-23T03:19:27;5.30;55.40
12849;DHT22;6493;50.928;7.172;2024-03-23T03:24:31;5.20;55.30
12849;DHT22;6493;50.928;7.172;2024-03-23T03:29:34;5.10;55.30
12849;DHT22;6493;50.928;7.172;2024-03-23T03:34:37;5.00;55.30
12849;DHT22;6493;50.928;7.172;2024-03-23T03:39:41;4.90;55.30
12849;DHT22;6493;50.928;7.172;2024-03-23T03:44:44;4.80;55.40
12849;DHT22;6493;50.928;7.172;2024-03-23T03:49:47;4.80;55.40
12849;DHT22;6493;50.928;7.172;2024-03-23T03:54:51;4.70;55.40
12849;DHT22;6493;50.928;7.172;2024-03-23T03:59:54;4.60;55.30
12849;DHT22;6493;50.928;7.172;2024-03-23T04:04:57;4.60;55.40
12849;DHT22;6493;50.928;7.172;2024-03-23T04:10:01;4.60;55.50
12849;DHT22;6493;50.928;7.172;2024-03-23T04:15:08;4.60;55.50
12849;DHT22;6493;50.928;7.172;2024-03-23T04:20:11;4.50;55.40
12849;DHT22;6493;50.928;7.172;2024-03-23T04:25:19;4.50;55.50
12849;DHT22;6493;50.928;7.172;2024-03-23T04:30:22;4.50;55.50
12849;DHT22;6493;50.928;7.172;2024-03-23T04:35:26;4.40;55.50
12849;DHT22;6493;50.928;7.172;2024-03-23T04:40:30;4.40;55.60
12849;DHT22;6493;50.928;7.172;2024-03-23T04:45:33;4.40;55.60
12849;DHT22;6493;50.928;7.172;2024-03-23T04:50:36;4.40;55.70
12849;DHT22;6493;50.928;7.172;2024-03-23T04:55:40;4.40;55.70
12849;DHT22;6493;50.928;7.172;2024-03-23T05:00:43;4.40;55.80
12849;DHT22;6493;50.928;7.172;2024-03-23T05:05:45;4.40;55.80
12849;DHT22;6493;50.928;7.172;2024-03-23T05:10:50;4.40;55.80
12849;DHT22;6493;50.928;7.172;2024-03-23T05:15:53;4.30;55.70
12849;DHT22;6493;50.928;7.172;2024-03-23T05:20:56;4.30;55.90
12849;DHT22;6493;50.928;7.172;2024-03-23T05:26:01;4.30;55.90
12849;DHT22;6493;50.928;7.172;2024-03-23T05:31:04;4.30;55.90
12849;DHT22;6493;50.928;7.172;2024-03-23T05:36:07;4.30;55.90
12849;DHT22;6493;50.928;7.172;2024-03-23T05:41:14;4.20;56.00
12849;DHT22;6493;50.928;7.172;2024-03-23T05:46:16;4.20;56.00
12849;DHT22;6493;50.928;7.172;2024-03-23T05:51:19;4.20;56.00
12849;DHT22;6493;50.928;7.172;2024-03-23T05:56:23;4.20;56.00
12849;DHT22;6493;50.928;7.172;2024-03-23T06:01:27;4.10;56.00
12849;DHT22;6493;50.928;7.172;2024-03-23T06:06:30;4.10;56.10
12849;DHT22;6493;50.928;7.172;2024-03-23T06:11:34;4.00;56.10
12849;DHT22;6493;50.928;7.172;2024-03-23T06:16:37;4.00;56.20
12849;DHT22;6493;50.928;7.172;2024-03-23T06:21:43;4.00;56.30
12849;DHT22;6493;50.928;7.172;2024-03-23T06:26:47;4.10;56.40
12849;DHT22;6493;50.928;7.172;2024-03-23T06:31:53;4.00;56.40
12849;DHT22;6493;50.928;7.172;2024-03-23T06:36:56;4.00;56.30
12849;DHT22;6493;50.928;7.172;2024-03-23T06:42:00;4.00;56.30
12849;DHT22;6493;50.928;7.172;2024-03-23T06:47:04;4.00;56.40
12849;DHT22;6493;50.928;7.172;2024-03-23T06:52:06;4.00;56.40
12849;DHT22;6493;50.928;7.172;2024-03-23T06:57:10;4.00;56.70
12849;DHT22;6493;50.928;7.172;2024-03-23T07:02:13;4.10;56.80
12849;DHT22;6493;50.928;7.172;2024-03-23T07:07:17;4.10;56.80
12849;DHT22;6493;50.928;7.172;2024-03-23T07:12:22;4.20;56.90
12849;DHT22;6493;50.928;7.172;2024-03-23T07:17:24;4.30;57.40
12849;DHT22;6493;50.928;7.172;2024-03-23T07:22:27;4.60;58.20
12849;DHT22;6493;50.928;7.172;2024-03-23T07:27:32;5.00;58.50
12849;DHT22;6493;50.928;7.172;2024-03-23T07:32:40;5.40;58.40
12849;DHT22;6493;50.928;7.172;2024-03-23T07:37:45;5.70;58.50
12849;DHT22;6493;50.928;7.172;2024-03-23T07:42:50;6.10;58.50
12849;DHT22;6493;50.928;7.172;2024-03-23T07:47:53;6.20;57.90
12849;DHT22;6493;50.928;7.172;2024-03-23T07:52:55;6.50;58.00
12849;DHT22;6493;50.928;7.172;2024-03-23T07:58:00;6.60;58.00
12849;DHT22;6493;50.928;7.172;2024-03-23T08:03:03;6.90;58.50
12849;DHT22;6493;50.928;7.172;2024-03-23T08:21:48;7.50;58.60
12849;DHT22;6493;50.928;7.172;2024-03-23T08:26:54;8.40;57.20
12849;DHT22;6493;50.928;7.172;2024-03-23T08:31:57;8.30;56.50
12849;DHT22;6493;50.928;7.172;2024-03-23T08:37:01;8.10;56.50
12849;DHT22;6493;50.928;7.172;2024-03-23T08:42:05;8.20;57.70
12849;DHT22;6493;50.928;7.172;2024-03-23T08:47:08;8.50;58.30
12849;DHT22;6493;50.928;7.172;2024-03-23T08:52:12;8.70;57.60
12849;DHT22;6493;50.928;7.172;2024-03-23T08:57:15;8.80;56.60
12849;DHT22;6493;50.928;7.172;2024-03-23T09:02:18;8.70;55.90
12849;DHT22;6493;50.928;7.172;2024-03-23T09:07:22;8.50;55.70
12849;DHT22;6493;50.928;7.172;2024-03-23T09:12:25;8.40;56.00
12849;DHT22;6493;50.928;7.172;2024-03-23T09:17:29;8.40;56.00
12849;DHT22;6493;50.928;7.172;2024-03-23T09:22:34;8.50;56.30
12849;DHT22;6493;50.928;7.172;2024-03-23T09:27:37;8.60;56.50
12849;DHT22;6493;50.928;7.172;2024-03-23T09:32:42;8.80;56.40
12849;DHT22;6493;50.928;7.172;2024-03-23T09:37:49;9.10;56.60
12849;DHT22;6493;50.928;7.172;2024-03-23T09:43:00;9.10;55.20
12849;DHT22;6493;50.928;7.172;2024-03-23T09:48:03;9.00;54.60
12849;DHT22;6493;50.928;7.172;2024-03-23T09:53:09;8.60;54.30
12849;DHT22;6493;50.928;7.172;2024-03-23T09:58:13;8.30;54.40
12849;DHT22;6493;50.928;7.172;2024-03-23T10:08:49;8.00;54.70
12849;DHT22;6493;50.928;7.172;2024-03-23T10:13:52;7.90;54.50
12849;DHT22;6493;50.928;7.172;2024-03-23T10:18:55;7.90;55.20
12849;DHT22;6493;50.928;7.172;2024-03-23T10:24:08;8.00;55.60
12849;DHT22;6493;50.928;7.172;2024-03-23T10:34:35;8.50;55.40
12849;DHT22;6493;50.928;7.172;2024-03-23T10:39:40;8.60;53.40
12849;DHT22;6493;50.928;7.172;2024-03-23T10:44:43;8.50;53.30
12849;DHT22;6493;50.928;7.172;2024-03-23T10:49:45;8.40;53.10
12849;DHT22;6493;50.928;7.172;2024-03-23T10:59:26;7.90;50.50
12849;DHT22;6493;50.928;7.172;2024-03-23T11:04:30;7.50;52.20
12849;DHT22;6493;50.928;7.172;2024-03-23T11:09:41;7.20;52.30
12849;DHT22;6493;50.928;7.172;2024-03-23T11:14:48;7.00;52.30
12849;DHT22;6493;50.928;7.172;2024-03-23T11:19:55;6.80;53.10
12849;DHT22;6493;50.928;7.172;2024-03-23T11:24:58;6.80;53.80
12849;DHT22;6493;50.928;7.172;2024-03-23T11:30:14;6.90;54.20
12849;DHT22;6493;50.928;7.172;2024-03-23T11:35:27;7.00;54.50
12849;DHT22;6493;50.928;7.172;2024-03-23T11:40:31;7.20;54.60
12849;DHT22;6493;50.928;7.172;2024-03-23T11:45:39;7.40;54.60
12849;DHT22;6493;50.928;7.172;2024-03-23T11:50:44;7.40;53.50
12849;DHT22;6493;50.928;7.172;2024-03-23T11:55:49;7.20;52.80
12849;DHT22;6493;50.928;7.172;2024-03-23T12:00:56;6.80;52.60
12849;DHT22;6493;50.928;7.172;2024-03-23T12:06:00;6.50;52.90
12849;DHT22;6493;50.928;7.172;2024-03-23T12:11:07;6.20;53.10
12849;DHT22;6493;50.928;7.172;2024-03-23T12:22:13;5.90;53.60
12849;DHT22;6493;50.928;7.172;2024-03-23T12:27:16;5.80;53.40
12849;DHT22;6493;50.928;7.172;2024-03-23T12:32:19;5.60;53.20
12849;DHT22;6493;50.928;7.172;2024-03-23T12:37:23;5.50;53.70
12849;DHT22;6493;50.928;7.172;2024-03-23T12:42:26;5.50;54.70
12849;DHT22;6493;50.928;7.172;2024-03-23T12:47:32;5.60;55.10
12849;DHT22;6493;50.928;7.172;2024-03-23T12:52:36;5.80;54.60
12849;DHT22;6493;50.928;7.172;2024-03-23T12:57:39;5.70;54.10
12849;DHT22;6493;50.928;7.172;2024-03-23T13:02:42;5.60;54.00
12849;DHT22;6493;50.928;7.172;2024-03-23T13:07:49;5.50;54.00
12849;DHT22;6493;50.928;7.172;2024-03-23T13:12:52;5.40;54.40
12849;DHT22;6493;50.928;7.172;2024-03-23T13:17:55;5.60;55.10
12849;DHT22;6493;50.928;7.172;2024-03-23T13:23:00;5.80;55.30
12849;DHT22;6493;50.928;7.172;2024-03-23T13:28:04;6.00;54.90
12849;DHT22;6493;50.928;7.172;2024-03-23T13:33:07;6.10;54.70
12849;DHT22;6493;50.928;7.172;2024-03-23T13:38:13;6.20;54.60
12849;DHT22;6493;50.928;7.172;2024-03-23T13:43:16;6.30;55.00
12849;DHT22;6493;50.928;7.172;2024-03-23T13:48:20;6.40;55.00
12849;DHT22;6493;50.928;7.172;2024-03-23T13:53:25;6.70;54.80
12849;DHT22;6493;50.928;7.172;2024-03-23T13:58:27;6.70;54.50
12849;DHT22;6493;50.928;7.172;2024-03-23T14:03:30;6.80;54.60
12849;DHT22;6493;50.928;7.172;2024-03-23T14:08:34;6.90;54.60
12849;DHT22;6493;50.928;7.172;2024-03-23T14:13:37;7.00;54.30
12849;DHT22;6493;50.928;7.172;2024-03-23T14:18:41;7.00;54.30
12849;DHT22;6493;50.928;7.172;2024-03-23T14:23:45;6.90;54.10
12849;DHT22;6493;50.928;7.172;2024-03-23T14:28:49;6.80;53.20
12849;DHT22;6493;50.928;7.172;2024-03-23T14:33:52;6.50;52.40
12849;DHT22;6493;50.928;7.172;2024-03-23T14:38:55;6.20;52.30
12849;DHT22;6493;50.928;7.172;2024-03-23T14:43:58;6.00;52.60
12849;DHT22;6493;50.928;7.172;2024-03-23T14:49:01;5.80;52.80
12849;DHT22;6493;50.928;7.172;2024-03-23T14:54:05;5.70;52.90
12849;DHT22;6493;50.928;7.172;2024-03-23T14:59:08;5.60;53.20
12849;DHT22;6493;50.928;7.172;2024-03-23T15:04:10;5.60;53.40
12849;DHT22;6493;50.928;7.172;2024-03-23T15:09:14;5.60;53.40
12849;DHT22;6493;50.928;7.172;2024-03-23T15:14:17;5.70;53.40
12849;DHT22;6493;50.928;7.172;2024-03-23T15:19:21;5.60;52.70
12849;DHT22;6493;50.928;7.172;2024-03-23T15:24:25;5.40;52.50
12849;DHT22;6493;50.928;7.172;2024-03-23T15:29:28;5.10;52.40
12849;DHT22;6493;50.928;7.172;2024-03-23T15:34:31;4.80;52.60
12849;DHT22;6493;50.928;7.172;2024-03-23T15:39:34;4.50;52.70
12849;DHT22;6493;50.928;7.172;2024-03-23T15:44:37;4.20;53.20
12849;DHT22;6493;50.928;7.172;2024-03-23T15:49:40;4.10;53.90
12849;DHT22;6493;50.928;7.172;2024-03-23T15:54:45;4.00;53.80
12849;DHT22;6493;50.928;7.172;2024-03-23T15:59:47;4.00;54.40
12849;DHT22;6493;50.928;7.172;2024-03-23T16:04:50;4.00;54.30
12849;DHT22;6493;50.928;7.172;2024-03-23T16:09:54;4.10;54.30
12849;DHT22;6493;50.928;7.172;2024-03-23T16:14:58;4.20;54.30
12849;DHT22;6493;50.928;7.172;2024-03-23T16:20:02;4.20;54.20
12849;DHT22;6493;50.928;7.172;2024-03-23T16:25:07;4.20;54.20
12849;DHT22;6493;50.928;7.172;2024-03-23T16:30:11;4.10;54.10
12849;DHT22;6493;50.928;7.172;2024-03-23T16:35:15;4.10;54.30
12849;DHT22;6493;50.928;7.172;2024-03-23T16:40:19;4.00;54.30
12849;DHT22;6493;50.928;7.172;2024-03-23T16:45:22;4.00;54.50
12849;DHT22;6493;50.928;7.172;2024-03-23T16:50:24;3.90;54.40
12849;DHT22;6493;50.928;7.172;2024-03-23T16:55:28;3.90;54.60
12849;DHT22;6493;50.928;7.172;2024-03-23T17:00:31;3.90;54.80
12849;DHT22;6493;50.928;7.172;2024-03-23T17:05:38;3.90;54.60
12849;DHT22;6493;50.928;7.172;2024-03-23T17:10:42;3.90;54.80
12849;DHT22;6493;50.928;7.172;2024-03-23T17:15:45;3.80;54.50
12849;DHT22;6493;50.928;7.172;2024-03-23T17:20:48;3.80;54.50
12849;DHT22;6493;50.928;7.172;2024-03-23T17:25:52;3.70;55.30
12849;DHT22;6493;50.928;7.172;2024-03-23T17:30:54;3.70;55.40
12849;DHT22;6493;50.928;7.172;2024-03-23T17:35:57;3.60;55.40
12849;DHT22;6493;50.928;7.172;2024-03-23T17:41:06;3.60;55.50
12849;DHT22;6493;50.928;7.172;2024-03-23T17:46:12;3.60;55.50
12849;DHT22;6493;50.928;7.172;2024-03-23T17:51:15;3.50;55.50
12849;DHT22;6493;50.928;7.172;2024-03-23T17:56:20;3.40;55.40
12849;DHT22;6493;50.928;7.172;2024-03-23T18:01:23;3.30;55.30
12849;DHT22;6493;50.928;7.172;2024-03-23T18:06:26;3.30;55.50
12849;DHT22;6493;50.928;7.172;2024-03-23T18:11:30;3.20;55.50
12849;DHT22;6493;50.928;7.172;2024-03-23T18:16:32;3.10;55.70
12849;DHT22;6493;50.928;7.172;2024-03-23T18:21:35;3.00;55.80
12849;DHT22;6493;50.928;7.172;2024-03-23T18:26:39;2.90;55.70
12849;DHT22;6493;50.928;7.172;2024-03-23T18:31:42;2.90;56.00
12849;DHT22;6493;50.928;7.172;2024-03-23T18:36:45;2.90;56.00
12849;DHT22;6493;50.928;7.172;2024-03-23T18:41:49;2.90;55.90
12849;DHT22;6493;50.928;7.172;2024-03-23T18:46:52;2.80;56.10
12849;DHT22;6493;50.928;7.172;2024-03-23T18:51:55;2.90;56.30
12849;DHT22;6493;50.928;7.172;2024-03-23T18:56:59;2.90;56.40
12849;DHT22;6493;50.928;7.172;2024-03-23T19:02:02;2.80;56.00
12849;DHT22;6493;50.928;7.172;2024-03-23T19:07:05;2.80;56.30
12849;DHT22;6493;50.928;7.172;2024-03-23T19:12:09;2.70;56.10
12849;DHT22;6493;50.928;7.172;2024-03-23T19:17:12;2.70;56.40
12849;DHT22;6493;50.928;7.172;2024-03-23T19:22:15;2.60;56.60
12849;DHT22;6493;50.928;7.172;2024-03-23T19:27:20;2.50;56.50
12849;DHT22;6493;50.928;7.172;2024-03-23T19:32:24;2.40;56.20
12849;DHT22;6493;50.928;7.172;2024-03-23T19:37:27;2.40;56.40
12849;DHT22;6493;50.928;7.172;2024-03-23T19:42:32;2.40;56.40
12849;DHT22;6493;50.928;7.172;2024-03-23T19:47:34;2.40;56.50
12849;DHT22;6493;50.928;7.172;2024-03-23T19:52:37;2.30;56.30
12849;DHT22;6493;50.928;7.172;2024-03-23T19:57:41;2.30;56.30
12849;DHT22;6493;50.928;7.172;2024-03-23T20:02:44;2.20;56.40
12849;DHT22;6493;50.928;7.172;2024-03-23T20:07:47;2.20;56.40
12849;DHT22;6493;50.928;7.172;2024-03-23T20:12:51;2.20;56.50
12849;DHT22;6493;50.928;7.172;2024-03-23T20:17:54;2.20;56.50
12849;DHT22;6493;50.928;7.172;2024-03-23T20:22:56;2.20;56.50
12849;DHT22;6493;50.928;7.172;2024-03-23T20:28:00;2.10;56.50
12849;DHT22;6493;50.928;7.172;2024-03-23T20:33:04;2.10;56.60
12849;DHT22;6493;50.928;7.172;2024-03-23T20:38:07;2.10;56.90
12849;DHT22;6493;50.928;7.172;2024-03-23T20:43:11;2.00;57.00
12849;DHT22;6493;50.928;7.172;2024-03-23T20:48:13;2.00;57.30
12849;DHT22;6493;50.928;7.172;2024-03-23T20:53:17;2.00;57.20
12849;DHT22;6493;50.928;7.172;2024-03-23T20:58:21;1.90;57.20
12849;DHT22;6493;50.928;7.172;2024-03-23T21:03:24;1.90;57.60
12849;DHT22;6493;50.928;7.172;2024-03-23T21:08:28;1.90;57.30
12849;DHT22;6493;50.928;7.172;2024-03-23T21:13:32;1.90;57.30
12849;DHT22;6493;50.928;7.172;2024-03-23T21:18:34;1.90;57.90
12849;DHT22;6493;50.928;7.172;2024-03-23T21:23:38;1.90;57.90
12849;DHT22;6493;50.928;7.172;2024-03-23T21:28:42;1.90;57.60
12849;DHT22;6493;50.928;7.172;2024-03-23T21:33:45;2.00;57.80
12849;DHT22;6493;50.928;7.172;2024-03-23T21:38:48;1.90;58.00
12849;DHT22;6493;50.928;7.172;2024-03-23T21:43:52;1.90;57.70
12849;DHT22;6493;50.928;7.172;2024-03-23T21:48:54;1.80;58.10
12849;DHT22;6493;50.928;7.172;2024-03-23T21:53:57;1.80;58.40
12849;DHT22;6493;50.928;7.172;2024-03-23T21:59:01;1.80;58.40
12849;DHT22;6493;50.928;7.172;2024-03-23T22:04:05;1.80;58.10
12849;DHT22;6493;50.928;7.172;2024-03-23T22:09:08;1.80;58.10
12849;DHT22;6493;50.928;7.172;2024-03-23T22:14:12;1.80;58.30
12849;DHT22;6493;50.928;7.172;2024-03-23T22:19:15;1.80;58.10
12849;DHT22;6493;50.928;7.172;2024-03-23T22:24:18;1.80;58.00
12849;DHT22;6493;50.928;7.172;2024-03-23T22:29:22;1.90;58.20
12849;DHT22;6493;50.928;7.172;2024-03-23T22:34:25;1.90;58.00
12849;DHT22;6493;50.928;7.172;2024-03-23T22:39:27;2.00;58.40
12849;DHT22;6493;50.928;7.172;2024-03-23T22:44:33;2.00;58.50
12849;DHT22;6493;50.928;7.172;2024-03-23T22:49:36;1.90;58.30
12849;DHT22;6493;50.928;7.172;2024-03-23T22:54:39;1.90;60.10
12849;DHT22;6493;50.928;7.172;2024-03-23T22:59:44;1.90;58.70
12849;DHT22;6493;50.928;7.172;2024-03-23T23:04:48;1.90;58.50
12849;DHT22;6493;50.928;7.172;2024-03-23T23:09:51;1.80;58.60
12849;DHT22;6493;50.928;7.172;2024-03-23T23:14:55;1.80;58.40
12849;DHT22;6493;50.928;7.172;2024-03-23T23:19:58;1.90;58.60
12849;DHT22;6493;50.928;7.172;2024-03-23T23:25:00;1.80;58.40
12849;DHT22;6493;50.928;7.172;2024-03-23T23:30:06;1.90;58.40
12849;DHT22;6493;50.928;7.172;2024-03-23T23:35:09;1.90;58.70
12849;DHT22;6493;50.928;7.172;2024-03-23T23:40:12;1.90;58.60
12849;DHT22;6493;50.928;7.172;2024-03-23T23:45:16;1.90;58.50
12849;DHT22;6493;50.928;7.172;2024-03-23T23:50:19;1.90;58.60
12849;DHT22;6493;50.928;7.172;2024-03-23T23:55:21;1.90;58.60
